Portada
METAR-TAF:

METAR-TAF

Aeroports :

Londres Southend, Anglaterra

latitud: 51-34N, longitud: 000-42E, altitud: 15 m

Observació

L'informe es va fer fa 28 minuts, a les 22:50 UTC
Vent 8 kt del Est/Sud-Est
Temperatura 7°C
Humitat 87%
Pressió 992 hPa
Visibilitat 10 km o més
Escasses núvols a una alçada de 4400 ft

METAR: EGMC 132250Z 12008KT 9999 FEW044 07/05 Q0992

Hora: 23:18 (23:18 UTC)

Pronòstic

L'informe es va fer fa 3 hores i 18 minuts, a les 20:00 UTC
Pronòstic vàlid del 13 a les 21 UTC al 14 a les 06 UTC
Vent 10 kt del Sud-Est
Visibilitat 10 km o més
Cel ennuvolat a una alçada de 2500 ft
Temporalment
l' 13 a les 21 UTC al 14 a les 06 UTC
Visibilitat: 6000 m
Cel ennuvolat a una alçada de 1400 ft
xàfecs de pluja
Probabilitat 30% :
Temporalment
l' 13 a les 21 UTC al 14 a les 06 UTC
Visibilitat: 4000 m
Cel ennuvolat a una alçada de 900 ft
xàfecs de pluja

TAF: EGMC 132000Z 1321/1406 14010KT 9999 BKN025 TEMPO 1321/1406 6000 SHRA BKN014 PROB30 TEMPO 1321/1406 4000 +SHRA BKN009

Observacions i pronòstics meteorològics de més de 4000 aeroports (METAR i TAF).

Les estacions disponibles són els punts grocs i vermells al mapa.

Posi el ratolí al punt desitjat per veure el nom de l'estació.

Feu clic per veure les observacions i els pronòstics meteorològics.

Per canviar el mapa: feu clic els botons verds amb una creu de color negre per apropar; al botó verd amb un guió per allunyar la imatge; o en les fletxes verdes per a mapes adjacents.


METAR-TAF: